createdAt,value
2022-08-07T00:00:20.690Z,10.50
2022-08-07T00:03:06.466Z,10.50
2022-08-07T00:05:55.032Z,10.50
2022-08-07T00:08:44.575Z,10.50
2022-08-07T00:11:33.058Z,10.50
2022-08-07T00:14:19.120Z,10.40
2022-08-07T00:17:11.030Z,10.40
2022-08-07T00:20:01.075Z,10.30
2022-08-07T00:22:51.789Z,10.30
2022-08-07T00:25:41.570Z,10.20
2022-08-07T00:28:31.513Z,10.20
2022-08-07T00:31:18.861Z,10.20
2022-08-07T00:34:05.481Z,10.20
2022-08-07T00:36:56.257Z,10.40
2022-08-07T00:39:45.094Z,10.30
2022-08-07T00:42:33.652Z,10.20
2022-08-07T00:45:22.923Z,10.20
2022-08-07T00:48:11.316Z,10.10
2022-08-07T00:50:57.660Z,10.20
2022-08-07T00:53:50.630Z,10.30
2022-08-07T00:56:41.566Z,10.30
2022-08-07T00:59:35.204Z,10.20
2022-08-07T01:02:27.967Z,10.10
2022-08-07T01:05:19.438Z,10.10
2022-08-07T01:08:06.187Z,10.00
2022-08-07T01:10:56.543Z,9.90
2022-08-07T01:13:54.365Z,9.80
2022-08-07T01:16:43.192Z,9.80
2022-08-07T01:19:34.460Z,9.70
2022-08-07T01:22:29.324Z,9.70
2022-08-07T01:25:54.498Z,9.70
2022-08-07T01:28:23.074Z,9.70
2022-08-07T01:31:12.253Z,9.70
2022-08-07T01:34:02.828Z,9.70
2022-08-07T01:36:58.007Z,9.70
2022-08-07T01:39:47.990Z,9.80
2022-08-07T01:42:57.350Z,9.80
2022-08-07T01:45:46.604Z,9.70
2022-08-07T01:48:41.042Z,9.70
2022-08-07T01:52:03.539Z,9.70
2022-08-07T01:54:37.573Z,9.60
2022-08-07T01:57:30.537Z,9.70
2022-08-07T02:00:28.907Z,9.60
2022-08-07T02:03:21.926Z,9.60
2022-08-07T02:06:31.763Z,9.60
2022-08-07T02:09:33.963Z,9.60
2022-08-07T02:12:36.255Z,9.60
2022-08-07T02:15:26.381Z,9.60
2022-08-07T02:18:15.363Z,9.60
2022-08-07T02:21:08.169Z,9.60
2022-08-07T02:24:03.370Z,9.60
2022-08-07T02:26:51.136Z,9.70
2022-08-07T02:29:43.563Z,9.70
2022-08-07T02:33:03.679Z,9.80
2022-08-07T02:36:29.913Z,9.80
2022-08-07T02:38:58.501Z,9.80
2022-08-07T02:41:54.580Z,9.80
2022-08-07T02:44:46.503Z,9.80
2022-08-07T02:47:45.080Z,9.80
2022-08-07T02:50:38.626Z,9.80
2022-08-07T02:53:31.242Z,9.80
2022-08-07T02:56:30.227Z,9.80
2022-08-07T02:59:19.908Z,9.80
2022-08-07T03:02:11.730Z,9.80
2022-08-07T03:05:00.279Z,9.90
2022-08-07T03:08:07.531Z,9.90
2022-08-07T03:10:58.605Z,9.90
2022-08-07T03:13:57.550Z,9.90
2022-08-07T03:16:47.988Z,9.90
2022-08-07T03:19:37.005Z,9.90
2022-08-07T03:22:29.549Z,9.90
2022-08-07T03:25:21.059Z,9.90
2022-08-07T03:28:37.625Z,9.90
2022-08-07T03:31:24.385Z,10.00
2022-08-07T03:34:18.242Z,10.10
2022-08-07T03:37:12.311Z,10.20
2022-08-07T03:40:14.919Z,10.20
2022-08-07T03:43:02.976Z,10.30
2022-08-07T03:45:52.272Z,10.40
2022-08-07T03:48:45.283Z,10.40
2022-08-07T03:51:47.307Z,10.60
2022-08-07T03:54:54.305Z,10.70
2022-08-07T03:58:33.993Z,10.90
2022-08-07T04:01:00.326Z,10.90
2022-08-07T04:03:55.257Z,11.10
2022-08-07T04:06:44.306Z,11.20
2022-08-07T04:09:44.818Z,11.20
2022-08-07T04:12:37.754Z,11.30
2022-08-07T04:15:24.046Z,11.20
2022-08-07T04:18:57.257Z,11.20
2022-08-07T04:21:20.411Z,11.30
2022-08-07T04:24:26.893Z,11.30
2022-08-07T04:27:25.196Z,11.20
2022-08-07T04:30:36.008Z,11.20
2022-08-07T04:33:27.287Z,11.10
2022-08-07T04:36:14.919Z,11.20
2022-08-07T04:39:05.920Z,11.30
2022-08-07T04:41:56.535Z,11.30
2022-08-07T04:44:54.622Z,11.30
2022-08-07T04:48:11.036Z,11.30
2022-08-07T04:51:27.612Z,11.40
2022-08-07T04:54:40.843Z,11.30
2022-08-07T04:58:14.419Z,11.20
2022-08-07T05:00:48.391Z,11.20
2022-08-07T05:04:06.406Z,11.30
2022-08-07T05:07:20.503Z,11.50
2022-08-07T05:10:22.991Z,11.80
2022-08-07T05:14:52.507Z,12.30
2022-08-07T05:16:30.372Z,12.80
2022-08-07T05:19:20.818Z,13.70
2022-08-07T05:22:27.794Z,14.40
2022-08-07T05:25:25.760Z,14.70
2022-08-07T05:28:26.696Z,15.20
2022-08-07T05:31:16.687Z,15.50
2022-08-07T05:34:10.927Z,16.10
2022-08-07T05:36:59.239Z,16.10
2022-08-07T05:40:16.532Z,16.20
2022-08-07T05:42:58.818Z,16.60
2022-08-07T05:45:47.739Z,17.00
2022-08-07T05:48:58.285Z,16.90
2022-08-07T05:51:46.918Z,17.20
2022-08-07T05:54:53.355Z,17.40
2022-08-07T05:57:42.963Z,18.00
2022-08-07T06:00:34.923Z,18.00
2022-08-07T06:03:27.279Z,18.30
2022-08-07T06:06:34.954Z,18.70
2022-08-07T06:09:44.896Z,18.70
2022-08-07T06:12:31.983Z,19.30
2022-08-07T06:15:21.075Z,19.90
2022-08-07T06:18:08.289Z,19.60
2022-08-07T06:22:15.598Z,19.60
2022-08-07T06:24:52.408Z,19.40
2022-08-07T06:27:07.909Z,19.30
2022-08-07T06:29:54.851Z,18.90
2022-08-07T06:32:42.211Z,19.40
2022-08-07T06:35:30.533Z,19.30
2022-08-07T06:38:25.673Z,19.60
2022-08-07T06:41:58.767Z,19.40
2022-08-07T06:44:34.080Z,19.20
2022-08-07T06:47:22.739Z,19.20
2022-08-07T06:50:10.904Z,19.50
2022-08-07T06:53:00.955Z,19.80
2022-08-07T06:56:00.012Z,19.90
2022-08-07T07:00:13.247Z,20.00
2022-08-07T07:02:00.779Z,20.10
2022-08-07T07:04:54.954Z,20.20
2022-08-07T07:07:59.669Z,20.10
2022-08-07T07:10:56.921Z,20.30
2022-08-07T07:13:57.603Z,20.60
2022-08-07T07:16:50.961Z,20.90
2022-08-07T07:19:57.120Z,21.30
2022-08-07T07:24:10.143Z,21.30
2022-08-07T07:26:31.330Z,20.80
2022-08-07T07:29:40.633Z,21.00
2022-08-07T07:32:18.815Z,21.90
2022-08-07T07:35:06.740Z,21.80
2022-08-07T07:38:02.249Z,21.50
2022-08-07T07:40:50.338Z,21.10
2022-08-07T07:44:14.401Z,20.80
2022-08-07T07:46:54.661Z,21.30
2022-08-07T07:50:36.107Z,20.60
2022-08-07T07:52:53.990Z,20.90
2022-08-07T07:55:45.805Z,21.10
2022-08-07T07:58:41.920Z,21.50
2022-08-07T08:02:03.857Z,20.90
